sensor_id;sensor_type;location;lat;lon;timestamp;P1;durP1;ratioP1;P2;durP2;ratioP2
57333;SDS011;43165;50.998;18.164;2022-11-12T00:01:11;40.60;;;17.20;;
57333;SDS011;43165;50.998;18.164;2022-11-12T00:10:54;25.40;;;14.10;;
57333;SDS011;43165;50.998;18.164;2022-11-12T00:20:36;23.70;;;13.70;;
57333;SDS011;43165;50.998;18.164;2022-11-12T00:30:18;23.20;;;13.80;;
57333;SDS011;43165;50.998;18.164;2022-11-12T00:47:18;27.20;;;17.40;;
57333;SDS011;43165;50.998;18.164;2022-11-12T00:57:00;19.70;;;10.00;;
57333;SDS011;43165;50.998;18.164;2022-11-12T01:06:41;22.10;;;11.50;;
57333;SDS011;43165;50.998;18.164;2022-11-12T01:16:30;6.20;;;5.30;;
57333;SDS011;43165;50.998;18.164;2022-11-12T01:26:19;20.60;;;14.00;;
57333;SDS011;43165;50.998;18.164;2022-11-12T01:36:14;21.00;;;12.20;;
57333;SDS011;43165;50.998;18.164;2022-11-12T01:45:58;12.20;;;9.20;;
57333;SDS011;43165;50.998;18.164;2022-11-12T01:55:45;5.10;;;4.70;;
57333;SDS011;43165;50.998;18.164;2022-11-12T02:05:29;24.90;;;13.10;;
57333;SDS011;43165;50.998;18.164;2022-11-12T02:15:33;19.40;;;8.70;;
57333;SDS011;43165;50.998;18.164;2022-11-12T02:25:17;10.10;;;5.90;;
57333;SDS011;43165;50.998;18.164;2022-11-12T02:35:10;19.10;;;13.70;;
57333;SDS011;43165;50.998;18.164;2022-11-12T02:44:52;8.60;;;6.20;;
57333;SDS011;43165;50.998;18.164;2022-11-12T02:54:35;33.90;;;17.00;;
57333;SDS011;43165;50.998;18.164;2022-11-12T03:04:16;24.30;;;11.60;;
57333;SDS011;43165;50.998;18.164;2022-11-12T03:13:58;31.70;;;16.30;;
57333;SDS011;43165;50.998;18.164;2022-11-12T03:23:40;28.10;;;14.10;;
57333;SDS011;43165;50.998;18.164;2022-11-12T03:33:23;28.30;;;17.20;;
57333;SDS011;43165;50.998;18.164;2022-11-12T03:43:05;19.90;;;13.20;;
57333;SDS011;43165;50.998;18.164;2022-11-12T03:52:50;42.20;;;16.10;;
57333;SDS011;43165;50.998;18.164;2022-11-12T04:10:34;23.20;;;13.50;;
57333;SDS011;43165;50.998;18.164;2022-11-12T04:20:54;19.20;;;11.30;;
57333;SDS011;43165;50.998;18.164;2022-11-12T04:31:32;22.50;;;11.30;;
57333;SDS011;43165;50.998;18.164;2022-11-12T04:41:33;31.20;;;11.80;;
57333;SDS011;43165;50.998;18.164;2022-11-12T04:51:52;16.30;;;10.50;;
57333;SDS011;43165;50.998;18.164;2022-11-12T05:01:47;11.60;;;10.40;;
57333;SDS011;43165;50.998;18.164;2022-11-12T05:11:41;25.60;;;12.90;;
57333;SDS011;43165;50.998;18.164;2022-11-12T05:21:24;9.30;;;8.60;;
57333;SDS011;43165;50.998;18.164;2022-11-12T05:31:24;8.50;;;5.90;;
57333;SDS011;43165;50.998;18.164;2022-11-12T05:41:06;15.20;;;12.50;;
57333;SDS011;43165;50.998;18.164;2022-11-12T05:50:51;20.80;;;11.70;;
57333;SDS011;43165;50.998;18.164;2022-11-12T06:00:33;14.30;;;10.10;;
57333;SDS011;43165;50.998;18.164;2022-11-12T06:10:22;25.80;;;13.50;;
57333;SDS011;43165;50.998;18.164;2022-11-12T06:20:05;13.20;;;8.70;;
57333;SDS011;43165;50.998;18.164;2022-11-12T06:37:04;11.80;;;9.20;;
57333;SDS011;43165;50.998;18.164;2022-11-12T06:46:45;12.00;;;9.30;;
57333;SDS011;43165;50.998;18.164;2022-11-12T06:56:29;29.80;;;16.80;;
57333;SDS011;43165;50.998;18.164;2022-11-12T07:06:15;33.40;;;16.80;;
57333;SDS011;43165;50.998;18.164;2022-11-12T07:16:01;38.20;;;22.20;;
57333;SDS011;43165;50.998;18.164;2022-11-12T07:26:02;32.30;;;17.80;;
57333;SDS011;43165;50.998;18.164;2022-11-12T07:35:47;42.60;;;23.80;;
57333;SDS011;43165;50.998;18.164;2022-11-12T07:45:29;46.60;;;24.40;;
57333;SDS011;43165;50.998;18.164;2022-11-12T08:02:31;31.70;;;19.70;;
57333;SDS011;43165;50.998;18.164;2022-11-12T08:12:12;33.30;;;20.70;;
57333;SDS011;43165;50.998;18.164;2022-11-12T08:21:54;7.70;;;7.00;;
57333;SDS011;43165;50.998;18.164;2022-11-12T08:31:36;41.80;;;18.80;;
57333;SDS011;43165;50.998;18.164;2022-11-12T08:41:27;40.40;;;16.60;;
57333;SDS011;43165;50.998;18.164;2022-11-12T08:51:08;46.30;;;23.40;;
57333;SDS011;43165;50.998;18.164;2022-11-12T09:00:51;49.50;;;22.60;;
57333;SDS011;43165;50.998;18.164;2022-11-12T09:10:36;13.70;;;11.70;;
57333;SDS011;43165;50.998;18.164;2022-11-12T09:20:20;31.40;;;22.50;;
57333;SDS011;43165;50.998;18.164;2022-11-12T09:30:03;14.10;;;12.80;;
57333;SDS011;43165;50.998;18.164;2022-11-12T09:39:46;21.60;;;12.70;;
57333;SDS011;43165;50.998;18.164;2022-11-12T09:49:36;18.30;;;13.10;;
57333;SDS011;43165;50.998;18.164;2022-11-12T09:59:22;14.10;;;10.10;;
57333;SDS011;43165;50.998;18.164;2022-11-12T10:09:39;28.60;;;7.80;;
57333;SDS011;43165;50.998;18.164;2022-11-12T10:20:30;5.10;;;4.70;;
57333;SDS011;43165;50.998;18.164;2022-11-12T10:30:23;8.40;;;7.80;;
57333;SDS011;43165;50.998;18.164;2022-11-12T10:40:35;8.60;;;5.90;;
57333;SDS011;43165;50.998;18.164;2022-11-12T10:43:03;15.20;;;12.30;;
57333;SDS011;43165;50.998;18.164;2022-11-12T10:50:32;56.30;;;36.10;;
57333;SDS011;43165;50.998;18.164;2022-11-12T11:00:31;16.00;;;11.50;;
57333;SDS011;43165;50.998;18.164;2022-11-12T11:10:28;26.40;;;13.80;;
57333;SDS011;43165;50.998;18.164;2022-11-12T11:28:26;29.60;;;13.30;;
57333;SDS011;43165;50.998;18.164;2022-11-12T11:56:59;15.20;;;10.10;;
57333;SDS011;43165;50.998;18.164;2022-11-12T12:45:52;14.60;;;10.20;;
57333;SDS011;43165;50.998;18.164;2022-11-12T12:55:40;13.50;;;11.10;;
57333;SDS011;43165;50.998;18.164;2022-11-12T13:05:36;17.80;;;12.70;;
57333;SDS011;43165;50.998;18.164;2022-11-12T13:15:41;11.20;;;9.10;;
57333;SDS011;43165;50.998;18.164;2022-11-12T13:25:27;11.50;;;10.00;;
57333;SDS011;43165;50.998;18.164;2022-11-12T13:52:48;36.40;;;24.50;;
57333;SDS011;43165;50.998;18.164;2022-11-12T14:02:32;42.50;;;22.30;;
57333;SDS011;43165;50.998;18.164;2022-11-12T14:23:16;89.20;;;35.70;;
57333;SDS011;43165;50.998;18.164;2022-11-12T14:33:19;87.70;;;31.80;;
57333;SDS011;43165;50.998;18.164;2022-11-12T15:11:18;41.20;;;24.20;;
57333;SDS011;43165;50.998;18.164;2022-11-12T15:21:32;63.40;;;30.30;;
57333;SDS011;43165;50.998;18.164;2022-11-12T15:42:01;28.90;;;19.20;;
57333;SDS011;43165;50.998;18.164;2022-11-12T15:51:46;74.00;;;40.00;;
57333;SDS011;43165;50.998;18.164;2022-11-12T16:01:27;57.80;;;31.60;;
57333;SDS011;43165;50.998;18.164;2022-11-12T16:11:10;41.40;;;22.50;;
57333;SDS011;43165;50.998;18.164;2022-11-12T16:21:13;99.80;;;44.80;;
57333;SDS011;43165;50.998;18.164;2022-11-12T16:30:55;33.30;;;23.30;;
57333;SDS011;43165;50.998;18.164;2022-11-12T16:40:38;76.70;;;13.50;;
57333;SDS011;43165;50.998;18.164;2022-11-12T16:50:26;50.50;;;25.80;;
57333;SDS011;43165;50.998;18.164;2022-11-12T17:00:09;66.10;;;34.70;;
57333;SDS011;43165;50.998;18.164;2022-11-12T17:09:58;37.40;;;24.60;;
57333;SDS011;43165;50.998;18.164;2022-11-12T17:19:39;56.30;;;31.30;;
57333;SDS011;43165;50.998;18.164;2022-11-12T17:29:22;65.80;;;27.20;;
57333;SDS011;43165;50.998;18.164;2022-11-12T17:39:04;49.50;;;30.60;;
57333;SDS011;43165;50.998;18.164;2022-11-12T17:56:05;60.60;;;32.50;;
57333;SDS011;43165;50.998;18.164;2022-11-12T18:06:04;83.50;;;46.10;;
57333;SDS011;43165;50.998;18.164;2022-11-12T18:15:46;66.90;;;32.70;;
57333;SDS011;43165;50.998;18.164;2022-11-12T18:32:45;81.00;;;41.90;;
57333;SDS011;43165;50.998;18.164;2022-11-12T18:49:43;70.40;;;33.30;;
57333;SDS011;43165;50.998;18.164;2022-11-12T18:59:25;35.90;;;22.60;;
57333;SDS011;43165;50.998;18.164;2022-11-12T19:09:12;85.00;;;45.30;;
57333;SDS011;43165;50.998;18.164;2022-11-12T19:18:56;63.90;;;35.90;;
57333;SDS011;43165;50.998;18.164;2022-11-12T19:28:40;108.90;;;53.20;;
57333;SDS011;43165;50.998;18.164;2022-11-12T19:38:25;84.60;;;42.00;;
57333;SDS011;43165;50.998;18.164;2022-11-12T19:48:09;81.30;;;45.00;;
57333;SDS011;43165;50.998;18.164;2022-11-12T19:57:55;63.90;;;40.00;;
57333;SDS011;43165;50.998;18.164;2022-11-12T20:07:36;33.60;;;21.40;;
57333;SDS011;43165;50.998;18.164;2022-11-12T20:17:20;49.80;;;30.30;;
57333;SDS011;43165;50.998;18.164;2022-11-12T20:27:05;86.40;;;36.90;;
57333;SDS011;43165;50.998;18.164;2022-11-12T20:36:50;96.70;;;43.40;;
57333;SDS011;43165;50.998;18.164;2022-11-12T20:46:32;66.20;;;30.50;;
57333;SDS011;43165;50.998;18.164;2022-11-12T20:56:19;103.00;;;40.10;;
57333;SDS011;43165;50.998;18.164;2022-11-12T21:06:06;67.10;;;35.10;;
57333;SDS011;43165;50.998;18.164;2022-11-12T21:15:50;92.80;;;40.30;;
57333;SDS011;43165;50.998;18.164;2022-11-12T21:25:34;41.00;;;24.70;;
57333;SDS011;43165;50.998;18.164;2022-11-12T21:35:20;43.00;;;27.60;;
57333;SDS011;43165;50.998;18.164;2022-11-12T21:45:02;56.60;;;27.50;;
57333;SDS011;43165;50.998;18.164;2022-11-12T21:54:44;52.40;;;26.80;;
57333;SDS011;43165;50.998;18.164;2022-11-12T22:04:26;67.90;;;25.30;;
57333;SDS011;43165;50.998;18.164;2022-11-12T22:14:08;37.70;;;18.90;;
57333;SDS011;43165;50.998;18.164;2022-11-12T22:23:54;36.40;;;16.60;;
57333;SDS011;43165;50.998;18.164;2022-11-12T22:33:41;38.40;;;19.50;;
57333;SDS011;43165;50.998;18.164;2022-11-12T22:43:32;31.00;;;18.40;;
57333;SDS011;43165;50.998;18.164;2022-11-12T22:53:22;31.00;;;16.90;;
57333;SDS011;43165;50.998;18.164;2022-11-12T23:03:04;52.10;;;26.10;;
57333;SDS011;43165;50.998;18.164;2022-11-12T23:12:47;53.00;;;27.10;;
57333;SDS011;43165;50.998;18.164;2022-11-12T23:22:30;54.80;;;22.60;;
57333;SDS011;43165;50.998;18.164;2022-11-12T23:32:12;50.40;;;27.90;;
57333;SDS011;43165;50.998;18.164;2022-11-12T23:41:57;51.20;;;30.70;;
57333;SDS011;43165;50.998;18.164;2022-11-12T23:51:39;16.80;;;15.20;;
